sensor_id;sensor_type;location;lat;lon;timestamp;P1;durP1;ratioP1;P2;durP2;ratioP2
66020;SDS011;52789;59.980;30.346;2022-11-15T00:01:14;8.40;;;6.30;;
66020;SDS011;52789;59.980;30.346;2022-11-15T00:03:45;7.70;;;6.47;;
66020;SDS011;52789;59.980;30.346;2022-11-15T00:06:11;6.80;;;6.10;;
66020;SDS011;52789;59.980;30.346;2022-11-15T00:08:36;8.40;;;6.60;;
66020;SDS011;52789;59.980;30.346;2022-11-15T00:11:02;9.53;;;6.37;;
66020;SDS011;52789;59.980;30.346;2022-11-15T00:13:29;12.53;;;7.07;;
66020;SDS011;52789;59.980;30.346;2022-11-15T00:15:58;8.10;;;7.13;;
66020;SDS011;52789;59.980;30.346;2022-11-15T00:18:26;7.40;;;6.47;;
66020;SDS011;52789;59.980;30.346;2022-11-15T00:20:52;8.13;;;6.77;;
66020;SDS011;52789;59.980;30.346;2022-11-15T00:23:22;8.73;;;6.23;;
66020;SDS011;52789;59.980;30.346;2022-11-15T00:26:35;8.50;;;7.03;;
66020;SDS011;52789;59.980;30.346;2022-11-15T00:29:04;6.70;;;5.88;;
66020;SDS011;52789;59.980;30.346;2022-11-15T00:31:30;8.37;;;6.93;;
66020;SDS011;52789;59.980;30.346;2022-11-15T00:33:56;10.93;;;7.00;;
66020;SDS011;52789;59.980;30.346;2022-11-15T00:36:21;9.13;;;6.97;;
66020;SDS011;52789;59.980;30.346;2022-11-15T00:38:47;8.37;;;6.87;;
66020;SDS011;52789;59.980;30.346;2022-11-15T00:41:12;12.67;;;7.23;;
66020;SDS011;52789;59.980;30.346;2022-11-15T00:43:38;8.57;;;7.40;;
66020;SDS011;52789;59.980;30.346;2022-11-15T00:46:05;8.57;;;7.50;;
66020;SDS011;52789;59.980;30.346;2022-11-15T00:48:32;9.07;;;6.70;;
66020;SDS011;52789;59.980;30.346;2022-11-15T00:50:57;10.77;;;7.97;;
66020;SDS011;52789;59.980;30.346;2022-11-15T00:53:23;10.60;;;7.20;;
66020;SDS011;52789;59.980;30.346;2022-11-15T00:55:48;13.27;;;8.50;;
66020;SDS011;52789;59.980;30.346;2022-11-15T00:58:14;12.90;;;7.13;;
66020;SDS011;52789;59.980;30.346;2022-11-15T01:00:39;14.90;;;8.13;;
66020;SDS011;52789;59.980;30.346;2022-11-15T01:03:05;11.07;;;7.67;;
66020;SDS011;52789;59.980;30.346;2022-11-15T01:05:31;9.27;;;6.43;;
66020;SDS011;52789;59.980;30.346;2022-11-15T01:07:56;10.53;;;6.80;;
66020;SDS011;52789;59.980;30.346;2022-11-15T01:10:22;7.80;;;6.30;;
66020;SDS011;52789;59.980;30.346;2022-11-15T01:12:49;7.97;;;6.43;;
66020;SDS011;52789;59.980;30.346;2022-11-15T01:15:15;6.87;;;6.17;;
66020;SDS011;52789;59.980;30.346;2022-11-15T01:17:40;7.57;;;6.17;;
66020;SDS011;52789;59.980;30.346;2022-11-15T01:20:06;8.97;;;6.73;;
66020;SDS011;52789;59.980;30.346;2022-11-15T01:22:37;7.03;;;6.03;;
66020;SDS011;52789;59.980;30.346;2022-11-15T01:25:03;6.67;;;5.37;;
66020;SDS011;52789;59.980;30.346;2022-11-15T01:27:29;8.23;;;6.13;;
66020;SDS011;52789;59.980;30.346;2022-11-15T01:29:54;8.73;;;6.80;;
66020;SDS011;52789;59.980;30.346;2022-11-15T01:32:20;7.57;;;5.83;;
66020;SDS011;52789;59.980;30.346;2022-11-15T01:34:46;9.27;;;7.30;;
66020;SDS011;52789;59.980;30.346;2022-11-15T01:37:17;10.73;;;6.83;;
66020;SDS011;52789;59.980;30.346;2022-11-15T01:39:48;8.17;;;6.17;;
66020;SDS011;52789;59.980;30.346;2022-11-15T01:42:14;7.90;;;5.80;;
66020;SDS011;52789;59.980;30.346;2022-11-15T01:47:17;7.43;;;5.90;;
66020;SDS011;52789;59.980;30.346;2022-11-15T01:49:50;8.98;;;5.20;;
66020;SDS011;52789;59.980;30.346;2022-11-15T01:52:22;7.53;;;5.90;;
66020;SDS011;52789;59.980;30.346;2022-11-15T01:57:30;7.67;;;4.90;;
66020;SDS011;52789;59.980;30.346;2022-11-15T01:59:55;9.17;;;6.50;;
66020;SDS011;52789;59.980;30.346;2022-11-15T02:02:24;7.68;;;5.28;;
66020;SDS011;52789;59.980;30.346;2022-11-15T02:04:49;7.73;;;5.90;;
66020;SDS011;52789;59.980;30.346;2022-11-15T02:07:16;7.77;;;5.70;;
66020;SDS011;52789;59.980;30.346;2022-11-15T02:09:43;7.65;;;6.40;;
66020;SDS011;52789;59.980;30.346;2022-11-15T02:12:13;7.27;;;5.90;;
66020;SDS011;52789;59.980;30.346;2022-11-15T02:14:42;9.53;;;5.93;;
66020;SDS011;52789;59.980;30.346;2022-11-15T02:17:26;8.53;;;6.40;;
66020;SDS011;52789;59.980;30.346;2022-11-15T02:20:19;10.40;;;6.70;;
66020;SDS011;52789;59.980;30.346;2022-11-15T02:25:39;7.80;;;6.53;;
66020;SDS011;52789;59.980;30.346;2022-11-15T02:28:30;7.83;;;6.23;;
66020;SDS011;52789;59.980;30.346;2022-11-15T02:43:04;9.20;;;6.93;;
66020;SDS011;52789;59.980;30.346;2022-11-15T02:46:00;9.90;;;6.20;;
66020;SDS011;52789;59.980;30.346;2022-11-15T02:48:39;9.53;;;6.43;;
66020;SDS011;52789;59.980;30.346;2022-11-15T02:51:07;8.68;;;5.85;;
66020;SDS011;52789;59.980;30.346;2022-11-15T02:53:34;10.27;;;6.10;;
66020;SDS011;52789;59.980;30.346;2022-11-15T02:56:02;8.40;;;6.60;;
66020;SDS011;52789;59.980;30.346;2022-11-15T03:06:33;10.70;;;6.63;;
66020;SDS011;52789;59.980;30.346;2022-11-15T03:11:50;7.97;;;5.93;;
66020;SDS011;52789;59.980;30.346;2022-11-15T03:24:47;7.10;;;5.53;;
66020;SDS011;52789;59.980;30.346;2022-11-15T03:35:39;6.97;;;5.60;;
66020;SDS011;52789;59.980;30.346;2022-11-15T03:38:25;9.20;;;6.67;;
66020;SDS011;52789;59.980;30.346;2022-11-15T03:41:01;7.63;;;6.13;;
66020;SDS011;52789;59.980;30.346;2022-11-15T03:43:39;10.02;;;6.05;;
66020;SDS011;52789;59.980;30.346;2022-11-15T03:46:29;9.83;;;7.20;;
66020;SDS011;52789;59.980;30.346;2022-11-15T03:49:02;10.00;;;6.20;;
66020;SDS011;52789;59.980;30.346;2022-11-15T03:51:36;10.20;;;5.83;;
66020;SDS011;52789;59.980;30.346;2022-11-15T03:54:03;8.70;;;7.30;;
66020;SDS011;52789;59.980;30.346;2022-11-15T03:56:29;7.70;;;5.73;;
66020;SDS011;52789;59.980;30.346;2022-11-15T03:58:54;7.87;;;5.40;;
66020;SDS011;52789;59.980;30.346;2022-11-15T04:01:20;8.97;;;6.40;;
66020;SDS011;52789;59.980;30.346;2022-11-15T04:03:45;10.80;;;7.83;;
66020;SDS011;52789;59.980;30.346;2022-11-15T04:06:11;11.83;;;7.60;;
66020;SDS011;52789;59.980;30.346;2022-11-15T04:08:37;10.47;;;7.30;;
66020;SDS011;52789;59.980;30.346;2022-11-15T04:14:08;10.07;;;7.17;;
66020;SDS011;52789;59.980;30.346;2022-11-15T04:16:52;8.93;;;6.50;;
66020;SDS011;52789;59.980;30.346;2022-11-15T04:19:17;11.30;;;6.67;;
66020;SDS011;52789;59.980;30.346;2022-11-15T04:22:02;7.90;;;6.83;;
66020;SDS011;52789;59.980;30.346;2022-11-15T04:24:47;8.37;;;6.63;;
66020;SDS011;52789;59.980;30.346;2022-11-15T04:27:15;8.97;;;7.13;;
66020;SDS011;52789;59.980;30.346;2022-11-15T04:29:41;8.82;;;6.97;;
66020;SDS011;52789;59.980;30.346;2022-11-15T04:32:06;6.90;;;5.57;;
66020;SDS011;52789;59.980;30.346;2022-11-15T04:34:32;8.37;;;6.13;;
66020;SDS011;52789;59.980;30.346;2022-11-15T04:36:58;6.93;;;5.90;;
66020;SDS011;52789;59.980;30.346;2022-11-15T04:39:40;9.37;;;7.17;;
66020;SDS011;52789;59.980;30.346;2022-11-15T04:42:06;10.73;;;7.40;;
66020;SDS011;52789;59.980;30.346;2022-11-15T04:44:32;10.33;;;8.03;;
66020;SDS011;52789;59.980;30.346;2022-11-15T04:46:58;11.50;;;8.33;;
66020;SDS011;52789;59.980;30.346;2022-11-15T04:49:23;9.70;;;6.80;;
66020;SDS011;52789;59.980;30.346;2022-11-15T04:51:49;11.93;;;6.97;;
66020;SDS011;52789;59.980;30.346;2022-11-15T04:54:15;13.87;;;7.80;;
66020;SDS011;52789;59.980;30.346;2022-11-15T04:56:46;12.07;;;8.50;;
66020;SDS011;52789;59.980;30.346;2022-11-15T04:59:12;9.97;;;7.00;;
66020;SDS011;52789;59.980;30.346;2022-11-15T05:01:37;9.77;;;6.73;;
66020;SDS011;52789;59.980;30.346;2022-11-15T05:04:03;11.70;;;6.60;;
66020;SDS011;52789;59.980;30.346;2022-11-15T05:06:47;11.17;;;6.87;;
66020;SDS011;52789;59.980;30.346;2022-11-15T05:09:14;8.90;;;6.17;;
66020;SDS011;52789;59.980;30.346;2022-11-15T05:11:40;8.30;;;5.70;;
66020;SDS011;52789;59.980;30.346;2022-11-15T05:14:06;8.63;;;6.70;;
66020;SDS011;52789;59.980;30.346;2022-11-15T05:16:31;14.37;;;8.20;;
66020;SDS011;52789;59.980;30.346;2022-11-15T05:18:57;7.27;;;5.70;;
66020;SDS011;52789;59.980;30.346;2022-11-15T05:21:22;9.33;;;6.13;;
66020;SDS011;52789;59.980;30.346;2022-11-15T05:23:49;7.93;;;5.50;;
66020;SDS011;52789;59.980;30.346;2022-11-15T05:26:16;9.73;;;6.10;;
66020;SDS011;52789;59.980;30.346;2022-11-15T05:28:43;10.97;;;7.63;;
66020;SDS011;52789;59.980;30.346;2022-11-15T05:31:13;13.77;;;8.23;;
66020;SDS011;52789;59.980;30.346;2022-11-15T05:33:39;13.43;;;9.10;;
66020;SDS011;52789;59.980;30.346;2022-11-15T05:36:20;13.00;;;9.97;;
66020;SDS011;52789;59.980;30.346;2022-11-15T05:39:32;13.40;;;10.30;;
66020;SDS011;52789;59.980;30.346;2022-11-15T05:42:11;13.93;;;10.60;;
66020;SDS011;52789;59.980;30.346;2022-11-15T05:44:39;15.33;;;10.30;;
66020;SDS011;52789;59.980;30.346;2022-11-15T05:47:11;15.13;;;11.10;;
66020;SDS011;52789;59.980;30.346;2022-11-15T05:49:42;17.20;;;11.43;;
66020;SDS011;52789;59.980;30.346;2022-11-15T05:52:13;19.93;;;14.17;;
66020;SDS011;52789;59.980;30.346;2022-11-15T06:01:20;13.60;;;8.73;;
66020;SDS011;52789;59.980;30.346;2022-11-15T06:03:46;10.43;;;8.10;;
66020;SDS011;52789;59.980;30.346;2022-11-15T06:06:14;13.87;;;7.10;;
66020;SDS011;52789;59.980;30.346;2022-11-15T06:08:46;9.60;;;6.20;;
66020;SDS011;52789;59.980;30.346;2022-11-15T06:11:17;10.27;;;7.43;;
66020;SDS011;52789;59.980;30.346;2022-11-15T06:13:42;11.40;;;6.30;;
66020;SDS011;52789;59.980;30.346;2022-11-15T06:16:08;8.77;;;6.40;;
66020;SDS011;52789;59.980;30.346;2022-11-15T06:18:33;9.50;;;6.47;;
66020;SDS011;52789;59.980;30.346;2022-11-15T06:21:00;8.13;;;6.43;;
66020;SDS011;52789;59.980;30.346;2022-11-15T06:23:26;12.27;;;6.80;;
66020;SDS011;52789;59.980;30.346;2022-11-15T06:25:57;7.47;;;6.07;;
66020;SDS011;52789;59.980;30.346;2022-11-15T06:28:29;8.33;;;6.60;;
66020;SDS011;52789;59.980;30.346;2022-11-15T06:30:56;9.27;;;6.77;;
66020;SDS011;52789;59.980;30.346;2022-11-15T06:33:27;7.60;;;6.57;;
66020;SDS011;52789;59.980;30.346;2022-11-15T06:35:52;10.43;;;6.40;;
66020;SDS011;52789;59.980;30.346;2022-11-15T06:38:18;8.87;;;6.20;;
66020;SDS011;52789;59.980;30.346;2022-11-15T06:40:43;10.97;;;6.67;;
66020;SDS011;52789;59.980;30.346;2022-11-15T06:43:09;8.40;;;6.03;;
66020;SDS011;52789;59.980;30.346;2022-11-15T06:45:34;6.37;;;5.77;;
66020;SDS011;52789;59.980;30.346;2022-11-15T06:48:03;7.70;;;5.87;;
66020;SDS011;52789;59.980;30.346;2022-11-15T06:50:28;8.30;;;5.55;;
66020;SDS011;52789;59.980;30.346;2022-11-15T06:52:55;8.80;;;5.63;;
66020;SDS011;52789;59.980;30.346;2022-11-15T06:55:26;7.00;;;4.90;;
66020;SDS011;52789;59.980;30.346;2022-11-15T06:57:51;6.20;;;5.17;;
66020;SDS011;52789;59.980;30.346;2022-11-15T07:00:18;7.90;;;6.00;;
66020;SDS011;52789;59.980;30.346;2022-11-15T07:02:45;8.07;;;5.67;;
66020;SDS011;52789;59.980;30.346;2022-11-15T07:05:11;8.50;;;5.43;;
66020;SDS011;52789;59.980;30.346;2022-11-15T07:07:38;10.20;;;6.00;;
66020;SDS011;52789;59.980;30.346;2022-11-15T07:10:03;7.50;;;6.07;;
66020;SDS011;52789;59.980;30.346;2022-11-15T07:12:32;9.47;;;6.23;;
66020;SDS011;52789;59.980;30.346;2022-11-15T07:14:58;10.53;;;6.97;;
66020;SDS011;52789;59.980;30.346;2022-11-15T07:17:24;9.13;;;7.80;;
66020;SDS011;52789;59.980;30.346;2022-11-15T07:19:49;8.03;;;6.90;;
66020;SDS011;52789;59.980;30.346;2022-11-15T07:22:15;8.43;;;6.33;;
66020;SDS011;52789;59.980;30.346;2022-11-15T07:24:41;12.13;;;7.33;;
66020;SDS011;52789;59.980;30.346;2022-11-15T07:27:06;9.83;;;7.03;;
66020;SDS011;52789;59.980;30.346;2022-11-15T07:29:32;6.80;;;6.03;;
66020;SDS011;52789;59.980;30.346;2022-11-15T07:31:57;7.17;;;5.77;;
66020;SDS011;52789;59.980;30.346;2022-11-15T07:34:24;8.17;;;6.27;;
66020;SDS011;52789;59.980;30.346;2022-11-15T07:36:49;10.87;;;8.20;;
66020;SDS011;52789;59.980;30.346;2022-11-15T07:39:15;9.00;;;6.40;;
66020;SDS011;52789;59.980;30.346;2022-11-15T07:41:41;6.87;;;5.50;;
66020;SDS011;52789;59.980;30.346;2022-11-15T07:44:06;6.23;;;4.93;;
66020;SDS011;52789;59.980;30.346;2022-11-15T07:46:32;10.80;;;5.97;;
66020;SDS011;52789;59.980;30.346;2022-11-15T07:48:57;8.17;;;5.30;;
66020;SDS011;52789;59.980;30.346;2022-11-15T07:51:23;10.03;;;5.93;;
66020;SDS011;52789;59.980;30.346;2022-11-15T07:53:49;7.60;;;5.37;;
66020;SDS011;52789;59.980;30.346;2022-11-15T07:56:14;7.00;;;5.73;;
66020;SDS011;52789;59.980;30.346;2022-11-15T07:58:40;9.27;;;6.83;;
66020;SDS011;52789;59.980;30.346;2022-11-15T08:01:06;12.07;;;6.50;;
66020;SDS011;52789;59.980;30.346;2022-11-15T08:03:33;10.97;;;6.23;;
66020;SDS011;52789;59.980;30.346;2022-11-15T08:06:00;6.93;;;4.77;;
66020;SDS011;52789;59.980;30.346;2022-11-15T08:08:25;6.70;;;5.60;;
66020;SDS011;52789;59.980;30.346;2022-11-15T08:10:51;8.30;;;5.77;;
66020;SDS011;52789;59.980;30.346;2022-11-15T08:13:16;7.43;;;5.43;;
66020;SDS011;52789;59.980;30.346;2022-11-15T08:15:42;6.83;;;4.53;;
66020;SDS011;52789;59.980;30.346;2022-11-15T08:18:12;9.70;;;5.63;;
66020;SDS011;52789;59.980;30.346;2022-11-15T08:20:39;7.20;;;4.87;;
66020;SDS011;52789;59.980;30.346;2022-11-15T08:23:06;5.63;;;4.23;;
66020;SDS011;52789;59.980;30.346;2022-11-15T08:25:33;6.07;;;4.60;;
66020;SDS011;52789;59.980;30.346;2022-11-15T08:28:01;4.33;;;3.83;;
66020;SDS011;52789;59.980;30.346;2022-11-15T08:30:29;6.27;;;4.63;;
66020;SDS011;52789;59.980;30.346;2022-11-15T08:32:56;8.43;;;5.13;;
66020;SDS011;52789;59.980;30.346;2022-11-15T08:35:23;5.57;;;4.27;;
66020;SDS011;52789;59.980;30.346;2022-11-15T08:37:49;7.30;;;4.90;;
66020;SDS011;52789;59.980;30.346;2022-11-15T08:40:15;6.70;;;4.53;;
66020;SDS011;52789;59.980;30.346;2022-11-15T08:42:42;7.67;;;5.47;;
66020;SDS011;52789;59.980;30.346;2022-11-15T08:47:37;7.03;;;5.07;;
66020;SDS011;52789;59.980;30.346;2022-11-15T08:50:03;8.93;;;4.77;;
66020;SDS011;52789;59.980;30.346;2022-11-15T08:54:59;5.30;;;4.40;;
66020;SDS011;52789;59.980;30.346;2022-11-15T08:57:28;5.13;;;4.67;;
66020;SDS011;52789;59.980;30.346;2022-11-15T08:59:55;6.00;;;4.77;;
66020;SDS011;52789;59.980;30.346;2022-11-15T09:02:21;6.93;;;4.30;;
66020;SDS011;52789;59.980;30.346;2022-11-15T09:04:46;4.47;;;3.60;;
66020;SDS011;52789;59.980;30.346;2022-11-15T09:07:12;7.43;;;4.47;;
66020;SDS011;52789;59.980;30.346;2022-11-15T09:09:38;4.00;;;3.20;;
66020;SDS011;52789;59.980;30.346;2022-11-15T09:12:05;6.37;;;3.60;;
66020;SDS011;52789;59.980;30.346;2022-11-15T09:14:32;4.80;;;3.83;;
66020;SDS011;52789;59.980;30.346;2022-11-15T09:16:57;3.43;;;2.87;;
66020;SDS011;52789;59.980;30.346;2022-11-15T09:19:23;3.83;;;3.30;;
66020;SDS011;52789;59.980;30.346;2022-11-15T09:21:49;4.73;;;3.43;;
66020;SDS011;52789;59.980;30.346;2022-11-15T09:24:15;6.77;;;4.23;;
66020;SDS011;52789;59.980;30.346;2022-11-15T09:26:42;5.67;;;3.93;;
66020;SDS011;52789;59.980;30.346;2022-11-15T09:29:08;4.90;;;3.80;;
66020;SDS011;52789;59.980;30.346;2022-11-15T09:31:33;4.33;;;3.93;;
66020;SDS011;52789;59.980;30.346;2022-11-15T09:33:59;6.73;;;3.70;;
66020;SDS011;52789;59.980;30.346;2022-11-15T09:36:25;5.27;;;4.03;;
66020;SDS011;52789;59.980;30.346;2022-11-15T09:38:50;8.57;;;4.53;;
66020;SDS011;52789;59.980;30.346;2022-11-15T09:41:23;5.03;;;3.70;;
66020;SDS011;52789;59.980;30.346;2022-11-15T09:43:58;5.50;;;4.45;;
66020;SDS011;52789;59.980;30.346;2022-11-15T09:49:12;5.53;;;3.77;;
66020;SDS011;52789;59.980;30.346;2022-11-15T09:51:43;5.63;;;4.43;;
66020;SDS011;52789;59.980;30.346;2022-11-15T09:57:10;7.23;;;4.60;;
66020;SDS011;52789;59.980;30.346;2022-11-15T10:05:12;6.73;;;4.37;;
66020;SDS011;52789;59.980;30.346;2022-11-15T10:08:06;5.77;;;4.37;;
66020;SDS011;52789;59.980;30.346;2022-11-15T10:14:18;5.53;;;4.30;;
66020;SDS011;52789;59.980;30.346;2022-11-15T10:16:59;6.33;;;3.87;;
66020;SDS011;52789;59.980;30.346;2022-11-15T10:22:47;4.87;;;3.60;;
66020;SDS011;52789;59.980;30.346;2022-11-15T10:25:24;4.97;;;4.10;;
66020;SDS011;52789;59.980;30.346;2022-11-15T10:30:33;6.30;;;5.00;;
66020;SDS011;52789;59.980;30.346;2022-11-15T10:33:09;7.50;;;5.23;;
66020;SDS011;52789;59.980;30.346;2022-11-15T10:38:49;5.77;;;4.20;;
66020;SDS011;52789;59.980;30.346;2022-11-15T10:56:30;4.27;;;3.77;;
66020;SDS011;52789;59.980;30.346;2022-11-15T11:53:31;5.17;;;4.43;;
66020;SDS011;52789;59.980;30.346;2022-11-15T11:56:15;4.00;;;3.60;;
66020;SDS011;52789;59.980;30.346;2022-11-15T11:58:47;6.43;;;4.43;;
66020;SDS011;52789;59.980;30.346;2022-11-15T12:06:59;7.43;;;5.43;;
66020;SDS011;52789;59.980;30.346;2022-11-15T12:23:04;3.67;;;3.30;;
66020;SDS011;52789;59.980;30.346;2022-11-15T12:28:38;4.20;;;3.80;;
66020;SDS011;52789;59.980;30.346;2022-11-15T12:38:55;4.67;;;4.10;;
66020;SDS011;52789;59.980;30.346;2022-11-15T12:52:04;5.83;;;4.87;;
66020;SDS011;52789;59.980;30.346;2022-11-15T13:02:24;5.23;;;4.13;;
66020;SDS011;52789;59.980;30.346;2022-11-15T13:04:53;5.97;;;4.90;;
66020;SDS011;52789;59.980;30.346;2022-11-15T13:20:25;4.93;;;4.13;;
66020;SDS011;52789;59.980;30.346;2022-11-15T13:22:58;6.23;;;4.60;;
66020;SDS011;52789;59.980;30.346;2022-11-15T13:28:33;6.43;;;4.37;;
66020;SDS011;52789;59.980;30.346;2022-11-15T13:31:19;5.73;;;4.27;;
66020;SDS011;52789;59.980;30.346;2022-11-15T13:33:49;6.37;;;4.73;;
66020;SDS011;52789;59.980;30.346;2022-11-15T13:36:18;5.97;;;4.00;;
66020;SDS011;52789;59.980;30.346;2022-11-15T13:39:03;6.63;;;3.80;;
66020;SDS011;52789;59.980;30.346;2022-11-15T13:41:32;6.23;;;4.20;;
66020;SDS011;52789;59.980;30.346;2022-11-15T13:44:00;5.53;;;4.60;;
66020;SDS011;52789;59.980;30.346;2022-11-15T13:46:28;4.70;;;3.93;;
66020;SDS011;52789;59.980;30.346;2022-11-15T13:49:00;5.80;;;4.00;;
66020;SDS011;52789;59.980;30.346;2022-11-15T13:51:47;5.27;;;3.60;;
66020;SDS011;52789;59.980;30.346;2022-11-15T13:54:18;5.50;;;4.40;;
66020;SDS011;52789;59.980;30.346;2022-11-15T13:57:10;5.40;;;4.13;;
66020;SDS011;52789;59.980;30.346;2022-11-15T13:59:49;4.40;;;4.00;;
66020;SDS011;52789;59.980;30.346;2022-11-15T14:02:21;9.50;;;4.60;;
66020;SDS011;52789;59.980;30.346;2022-11-15T14:04:53;7.17;;;4.77;;
66020;SDS011;52789;59.980;30.346;2022-11-15T14:07:39;6.97;;;4.97;;
66020;SDS011;52789;59.980;30.346;2022-11-15T14:10:24;5.27;;;4.30;;
66020;SDS011;52789;59.980;30.346;2022-11-15T14:12:50;6.57;;;4.70;;
66020;SDS011;52789;59.980;30.346;2022-11-15T14:17:51;7.30;;;4.57;;
66020;SDS011;52789;59.980;30.346;2022-11-15T14:20:33;7.57;;;4.07;;
66020;SDS011;52789;59.980;30.346;2022-11-15T14:25:51;4.40;;;3.30;;
66020;SDS011;52789;59.980;30.346;2022-11-15T14:30:49;8.63;;;3.50;;
66020;SDS011;52789;59.980;30.346;2022-11-15T14:35:51;6.73;;;3.43;;
66020;SDS011;52789;59.980;30.346;2022-11-15T14:38:17;6.57;;;4.40;;
66020;SDS011;52789;59.980;30.346;2022-11-15T14:40:43;7.77;;;4.53;;
66020;SDS011;52789;59.980;30.346;2022-11-15T14:43:10;6.73;;;4.90;;
66020;SDS011;52789;59.980;30.346;2022-11-15T14:45:37;6.63;;;4.73;;
66020;SDS011;52789;59.980;30.346;2022-11-15T14:48:03;7.77;;;4.77;;
66020;SDS011;52789;59.980;30.346;2022-11-15T14:50:31;8.33;;;4.30;;
66020;SDS011;52789;59.980;30.346;2022-11-15T14:52:57;6.03;;;4.90;;
66020;SDS011;52789;59.980;30.346;2022-11-15T14:55:24;7.87;;;4.20;;
66020;SDS011;52789;59.980;30.346;2022-11-15T14:57:57;7.33;;;4.53;;
66020;SDS011;52789;59.980;30.346;2022-11-15T15:00:23;5.97;;;4.07;;
66020;SDS011;52789;59.980;30.346;2022-11-15T15:02:48;6.00;;;4.47;;
66020;SDS011;52789;59.980;30.346;2022-11-15T15:05:19;5.80;;;4.27;;
66020;SDS011;52789;59.980;30.346;2022-11-15T15:07:54;5.63;;;4.70;;
66020;SDS011;52789;59.980;30.346;2022-11-15T15:10:20;6.27;;;4.83;;
66020;SDS011;52789;59.980;30.346;2022-11-15T15:12:49;5.63;;;3.87;;
66020;SDS011;52789;59.980;30.346;2022-11-15T15:15:19;6.43;;;4.77;;
66020;SDS011;52789;59.980;30.346;2022-11-15T15:17:49;6.90;;;4.40;;
66020;SDS011;52789;59.980;30.346;2022-11-15T15:20:14;4.13;;;3.30;;
66020;SDS011;52789;59.980;30.346;2022-11-15T15:22:40;3.80;;;3.10;;
66020;SDS011;52789;59.980;30.346;2022-11-15T15:25:48;5.30;;;3.10;;
66020;SDS011;52789;59.980;30.346;2022-11-15T15:27:59;3.23;;;2.80;;
66020;SDS011;52789;59.980;30.346;2022-11-15T15:30:25;6.47;;;3.33;;
66020;SDS011;52789;59.980;30.346;2022-11-15T15:32:51;6.57;;;4.40;;
66020;SDS011;52789;59.980;30.346;2022-11-15T15:35:17;5.23;;;3.47;;
66020;SDS011;52789;59.980;30.346;2022-11-15T15:37:44;6.00;;;4.27;;
66020;SDS011;52789;59.980;30.346;2022-11-15T15:40:15;5.23;;;4.00;;
66020;SDS011;52789;59.980;30.346;2022-11-15T15:42:43;6.60;;;4.43;;
66020;SDS011;52789;59.980;30.346;2022-11-15T15:45:11;3.63;;;3.33;;
66020;SDS011;52789;59.980;30.346;2022-11-15T15:47:38;6.80;;;3.77;;
66020;SDS011;52789;59.980;30.346;2022-11-15T15:50:34;6.63;;;4.53;;
66020;SDS011;52789;59.980;30.346;2022-11-15T15:53:01;5.60;;;4.37;;
66020;SDS011;52789;59.980;30.346;2022-11-15T15:55:28;4.70;;;3.60;;
66020;SDS011;52789;59.980;30.346;2022-11-15T15:57:55;6.67;;;4.20;;
66020;SDS011;52789;59.980;30.346;2022-11-15T16:00:21;6.43;;;4.27;;
66020;SDS011;52789;59.980;30.346;2022-11-15T16:02:48;8.38;;;5.82;;
66020;SDS011;52789;59.980;30.346;2022-11-15T16:05:15;5.87;;;4.90;;
66020;SDS011;52789;59.980;30.346;2022-11-15T16:07:42;6.40;;;4.77;;
66020;SDS011;52789;59.980;30.346;2022-11-15T16:12:48;8.53;;;5.20;;
66020;SDS011;52789;59.980;30.346;2022-11-15T16:15:13;7.00;;;4.87;;
66020;SDS011;52789;59.980;30.346;2022-11-15T16:17:40;6.23;;;4.30;;
66020;SDS011;52789;59.980;30.346;2022-11-15T16:23:08;8.13;;;4.30;;
66020;SDS011;52789;59.980;30.346;2022-11-15T16:25:43;5.88;;;4.18;;
66020;SDS011;52789;59.980;30.346;2022-11-15T16:28:15;7.77;;;4.73;;
66020;SDS011;52789;59.980;30.346;2022-11-15T16:30:43;4.70;;;4.20;;
66020;SDS011;52789;59.980;30.346;2022-11-15T16:33:08;5.50;;;4.63;;
66020;SDS011;52789;59.980;30.346;2022-11-15T16:35:34;5.27;;;4.00;;
66020;SDS011;52789;59.980;30.346;2022-11-15T16:37:59;5.20;;;4.50;;
66020;SDS011;52789;59.980;30.346;2022-11-15T16:40:26;5.50;;;3.90;;
66020;SDS011;52789;59.980;30.346;2022-11-15T16:42:55;5.00;;;3.93;;
66020;SDS011;52789;59.980;30.346;2022-11-15T16:45:24;4.27;;;3.53;;
66020;SDS011;52789;59.980;30.346;2022-11-15T16:50:29;3.47;;;3.13;;
66020;SDS011;52789;59.980;30.346;2022-11-15T16:52:57;3.87;;;3.47;;
66020;SDS011;52789;59.980;30.346;2022-11-15T16:55:27;4.47;;;3.70;;
66020;SDS011;52789;59.980;30.346;2022-11-15T16:57:54;6.00;;;3.50;;
66020;SDS011;52789;59.980;30.346;2022-11-15T17:00:22;3.67;;;3.37;;
66020;SDS011;52789;59.980;30.346;2022-11-15T17:02:49;5.37;;;3.93;;
66020;SDS011;52789;59.980;30.346;2022-11-15T17:05:19;3.13;;;2.70;;
66020;SDS011;52789;59.980;30.346;2022-11-15T17:07:51;3.63;;;3.03;;
66020;SDS011;52789;59.980;30.346;2022-11-15T17:10:18;4.07;;;3.30;;
66020;SDS011;52789;59.980;30.346;2022-11-15T17:12:45;4.97;;;3.23;;
66020;SDS011;52789;59.980;30.346;2022-11-15T17:15:11;4.57;;;3.80;;
66020;SDS011;52789;59.980;30.346;2022-11-15T17:17:37;6.13;;;3.50;;
66020;SDS011;52789;59.980;30.346;2022-11-15T17:20:04;5.03;;;3.40;;
66020;SDS011;52789;59.980;30.346;2022-11-15T17:22:34;3.87;;;3.47;;
66020;SDS011;52789;59.980;30.346;2022-11-15T17:25:01;4.33;;;3.60;;
66020;SDS011;52789;59.980;30.346;2022-11-15T17:27:29;3.95;;;3.58;;
66020;SDS011;52789;59.980;30.346;2022-11-15T17:29:54;4.40;;;3.73;;
66020;SDS011;52789;59.980;30.346;2022-11-15T17:32:20;5.73;;;3.57;;
66020;SDS011;52789;59.980;30.346;2022-11-15T17:34:45;4.20;;;3.53;;
66020;SDS011;52789;59.980;30.346;2022-11-15T17:37:11;6.33;;;2.70;;
66020;SDS011;52789;59.980;30.346;2022-11-15T17:39:36;5.80;;;4.50;;
66020;SDS011;52789;59.980;30.346;2022-11-15T17:42:02;4.67;;;3.93;;
66020;SDS011;52789;59.980;30.346;2022-11-15T17:44:28;6.13;;;3.73;;
66020;SDS011;52789;59.980;30.346;2022-11-15T17:46:53;4.37;;;3.37;;
66020;SDS011;52789;59.980;30.346;2022-11-15T17:49:19;4.23;;;3.17;;
66020;SDS011;52789;59.980;30.346;2022-11-15T17:52:01;3.23;;;2.70;;
66020;SDS011;52789;59.980;30.346;2022-11-15T17:54:26;4.60;;;3.07;;
66020;SDS011;52789;59.980;30.346;2022-11-15T17:56:52;3.67;;;3.37;;
66020;SDS011;52789;59.980;30.346;2022-11-15T17:59:21;5.57;;;4.00;;
66020;SDS011;52789;59.980;30.346;2022-11-15T18:01:49;3.50;;;3.20;;
66020;SDS011;52789;59.980;30.346;2022-11-15T18:04:14;3.70;;;3.10;;
66020;SDS011;52789;59.980;30.346;2022-11-15T18:06:40;6.07;;;3.90;;
66020;SDS011;52789;59.980;30.346;2022-11-15T18:09:31;5.67;;;4.60;;
66020;SDS011;52789;59.980;30.346;2022-11-15T18:11:56;7.47;;;3.70;;
66020;SDS011;52789;59.980;30.346;2022-11-15T18:14:22;3.73;;;3.40;;
66020;SDS011;52789;59.980;30.346;2022-11-15T18:16:50;3.93;;;3.50;;
66020;SDS011;52789;59.980;30.346;2022-11-15T18:19:16;5.70;;;4.40;;
66020;SDS011;52789;59.980;30.346;2022-11-15T18:21:42;6.07;;;4.37;;
66020;SDS011;52789;59.980;30.346;2022-11-15T18:24:30;5.90;;;3.38;;
66020;SDS011;52789;59.980;30.346;2022-11-15T18:26:59;5.53;;;3.80;;
66020;SDS011;52789;59.980;30.346;2022-11-15T18:29:26;5.57;;;3.57;;
66020;SDS011;52789;59.980;30.346;2022-11-15T18:31:52;5.27;;;3.87;;
66020;SDS011;52789;59.980;30.346;2022-11-15T18:34:27;7.20;;;4.20;;
66020;SDS011;52789;59.980;30.346;2022-11-15T18:36:58;5.30;;;3.50;;
66020;SDS011;52789;59.980;30.346;2022-11-15T18:39:24;4.63;;;3.50;;
66020;SDS011;52789;59.980;30.346;2022-11-15T18:41:51;5.93;;;3.73;;
66020;SDS011;52789;59.980;30.346;2022-11-15T18:47:10;5.03;;;3.57;;
66020;SDS011;52789;59.980;30.346;2022-11-15T18:49:38;4.50;;;3.63;;